createdAt,value
2023-02-27T00:02:17.867Z,5.93
2023-02-27T00:04:44.567Z,5.97
2023-02-27T00:07:11.675Z,6.01
2023-02-27T00:09:40.128Z,6.02
2023-02-27T00:12:08.286Z,6.03
2023-02-27T00:14:35.084Z,6.01
2023-02-27T00:17:02.010Z,6.00
2023-02-27T00:19:28.559Z,5.96
2023-02-27T00:21:55.145Z,5.97
2023-02-27T00:24:22.484Z,5.96
2023-02-27T00:26:49.085Z,5.98
2023-02-27T00:29:15.689Z,5.94
2023-02-27T00:31:42.337Z,5.87
2023-02-27T00:34:09.500Z,5.86
2023-02-27T00:36:36.153Z,5.84
2023-02-27T00:39:03.002Z,5.83
2023-02-27T00:41:30.517Z,5.83
2023-02-27T00:43:58.149Z,5.86
2023-02-27T00:46:24.809Z,5.86
2023-02-27T00:48:51.633Z,5.87
2023-02-27T00:51:20.219Z,5.85
2023-02-27T00:53:46.785Z,5.87
2023-02-27T00:56:13.344Z,5.92
2023-02-27T00:58:42.945Z,5.94
2023-02-27T01:01:09.698Z,5.95
2023-02-27T01:03:36.315Z,5.98
2023-02-27T01:06:02.958Z,5.98
2023-02-27T01:08:29.647Z,5.97
2023-02-27T01:10:56.399Z,5.93
2023-02-27T01:13:23.938Z,5.90
2023-02-27T01:15:50.632Z,5.85
2023-02-27T01:18:17.373Z,5.78
2023-02-27T01:20:44.068Z,5.76
2023-02-27T01:23:10.716Z,5.80
2023-02-27T01:25:37.366Z,5.88
2023-02-27T01:28:03.968Z,5.84
2023-02-27T01:30:30.556Z,5.82
2023-02-27T01:32:57.154Z,5.88
2023-02-27T01:35:23.630Z,5.87
2023-02-27T01:37:50.229Z,5.84
2023-02-27T01:40:16.998Z,5.83
2023-02-27T01:42:43.563Z,5.80
2023-02-27T01:45:29.108Z,5.79
2023-02-27T01:48:06.725Z,5.75
2023-02-27T01:50:35.187Z,5.70
2023-02-27T01:53:02.277Z,5.68
2023-02-27T01:55:31.559Z,5.69
2023-02-27T01:57:58.350Z,5.67
2023-02-27T02:00:25.482Z,5.66
2023-02-27T02:03:31.049Z,5.65
2023-02-27T02:05:58.725Z,5.61
2023-02-27T02:08:27.353Z,5.62
2023-02-27T02:10:55.778Z,5.63
2023-02-27T02:13:22.578Z,5.68
2023-02-27T02:16:09.281Z,5.73
2023-02-27T02:18:58.182Z,5.79
2023-02-27T02:21:52.311Z,5.80
2023-02-27T02:24:37.243Z,5.78
2023-02-27T02:27:40.454Z,5.83
2023-02-27T02:30:22.490Z,5.83
2023-02-27T02:33:15.257Z,5.83
2023-02-27T02:36:03.427Z,5.81
2023-02-27T02:38:35.623Z,5.86
2023-02-27T02:41:15.660Z,5.86
2023-02-27T02:43:51.103Z,5.88
2023-02-27T02:46:47.816Z,5.90
2023-02-27T02:49:21.734Z,5.91
2023-02-27T02:52:02.915Z,5.89
2023-02-27T02:54:41.046Z,5.87
2023-02-27T02:57:16.420Z,5.86
2023-02-27T03:00:07.341Z,5.78
2023-02-27T03:02:42.644Z,5.69
2023-02-27T03:05:13.885Z,5.64
2023-02-27T03:07:44.553Z,5.62
2023-02-27T03:10:28.433Z,5.59
2023-02-27T03:13:06.675Z,5.59
2023-02-27T03:15:48.731Z,5.57
2023-02-27T03:18:20.753Z,5.53
2023-02-27T03:21:16.912Z,5.46
2023-02-27T03:23:46.253Z,5.43
2023-02-27T03:26:17.333Z,5.41
2023-02-27T03:29:07.951Z,5.40
2023-02-27T03:31:41.237Z,5.48
2023-02-27T03:34:37.784Z,5.51
2023-02-27T03:37:14.978Z,5.51
2023-02-27T03:39:51.016Z,5.53
2023-02-27T03:42:21.341Z,5.51
2023-02-27T03:45:17.164Z,5.50
2023-02-27T03:47:43.729Z,5.53
2023-02-27T03:50:10.657Z,5.53
2023-02-27T03:52:37.514Z,5.54
2023-02-27T03:55:14.785Z,5.59
2023-02-27T03:57:41.737Z,5.64
2023-02-27T04:00:12.086Z,5.61
2023-02-27T04:02:41.569Z,5.57
2023-02-27T04:05:09.932Z,5.59
2023-02-27T04:07:52.944Z,5.61
2023-02-27T04:10:47.164Z,5.59
2023-02-27T04:13:28.758Z,5.58
2023-02-27T04:16:15.766Z,5.59
2023-02-27T04:19:24.695Z,5.61
2023-02-27T04:22:23.542Z,5.67
2023-02-27T04:25:29.409Z,5.66
2023-02-27T04:28:05.803Z,5.62
2023-02-27T04:30:47.596Z,5.62
2023-02-27T04:33:32.340Z,5.62
2023-02-27T04:36:13.024Z,5.60
2023-02-27T04:39:00.967Z,5.57
2023-02-27T04:41:56.885Z,5.58
2023-02-27T04:44:24.352Z,5.60
2023-02-27T04:46:52.449Z,5.57
2023-02-27T04:49:24.786Z,5.53
2023-02-27T04:51:56.241Z,5.54
2023-02-27T04:54:29.030Z,5.56
2023-02-27T04:56:58.255Z,5.55
2023-02-27T04:59:27.828Z,5.52
2023-02-27T05:01:58.143Z,5.54
2023-02-27T05:04:27.460Z,5.47
2023-02-27T05:06:55.737Z,5.42
2023-02-27T05:09:38.708Z,5.42
2023-02-27T05:12:11.461Z,5.42
2023-02-27T05:14:45.681Z,5.38
2023-02-27T05:17:17.031Z,5.35
2023-02-27T05:19:44.008Z,5.31
2023-02-27T05:22:16.640Z,5.31
2023-02-27T05:24:52.265Z,5.32
2023-02-27T05:27:28.444Z,5.30
2023-02-27T05:30:29.200Z,5.27
2023-02-27T05:33:02.338Z,5.32
2023-02-27T05:35:35.972Z,5.37
2023-02-27T05:38:07.003Z,5.40
2023-02-27T05:40:39.780Z,5.41
2023-02-27T05:43:10.615Z,5.43
2023-02-27T05:45:39.172Z,5.45
2023-02-27T05:48:15.121Z,5.39
2023-02-27T05:50:43.447Z,5.40
2023-02-27T05:53:14.438Z,5.43
2023-02-27T05:55:51.687Z,5.48
2023-02-27T05:58:27.024Z,5.53
2023-02-27T06:01:01.727Z,5.57
2023-02-27T06:03:29.147Z,5.57
2023-02-27T06:05:57.782Z,5.54
2023-02-27T06:08:24.924Z,5.51
2023-02-27T06:10:51.666Z,5.47
2023-02-27T06:13:18.667Z,5.54
2023-02-27T06:15:45.779Z,5.62
2023-02-27T06:18:13.078Z,5.66
2023-02-27T06:20:47.643Z,5.73
2023-02-27T06:23:14.279Z,5.78
2023-02-27T06:25:42.361Z,5.79
2023-02-27T06:28:09.804Z,5.85
2023-02-27T06:30:36.831Z,5.91
2023-02-27T06:36:12.365Z,6.03
2023-02-27T06:39:24.142Z,6.05
2023-02-27T06:42:15.571Z,6.10
2023-02-27T06:44:43.253Z,6.15
2023-02-27T06:47:09.946Z,6.18
2023-02-27T06:49:38.048Z,6.20
2023-02-27T06:52:05.245Z,6.24
2023-02-27T06:54:31.787Z,6.26
2023-02-27T06:56:58.397Z,6.34
2023-02-27T06:59:25.096Z,6.43
2023-02-27T07:01:51.820Z,6.45
2023-02-27T07:04:18.486Z,6.44
2023-02-27T07:07:36.211Z,6.41
2023-02-27T07:09:32.272Z,6.39
2023-02-27T07:11:59.767Z,6.33
2023-02-27T07:14:26.313Z,6.35
2023-02-27T07:16:55.697Z,6.38
2023-02-27T07:19:26.355Z,6.41
2023-02-27T07:21:53.099Z,6.43
2023-02-27T07:24:19.719Z,6.44
2023-02-27T07:26:47.267Z,6.40
2023-02-27T07:29:14.948Z,6.39
2023-02-27T07:31:41.811Z,6.37
2023-02-27T07:34:09.723Z,6.42
2023-02-27T07:36:36.245Z,6.38
2023-02-27T07:39:03.716Z,6.33
2023-02-27T07:41:31.208Z,6.30
2023-02-27T07:44:05.675Z,6.31
2023-02-27T07:46:32.587Z,6.32
2023-02-27T07:49:00.373Z,6.30
2023-02-27T07:51:26.962Z,6.31
2023-02-27T07:53:54.101Z,6.30
2023-02-27T07:56:20.754Z,6.28
2023-02-27T07:58:56.374Z,6.29
2023-02-27T08:04:08.211Z,6.41
2023-02-27T08:06:34.744Z,6.46
2023-02-27T08:09:01.387Z,6.49
2023-02-27T08:11:28.241Z,6.53
2023-02-27T08:14:00.583Z,6.56
2023-02-27T08:16:30.031Z,6.55
2023-02-27T08:18:57.383Z,6.54
2023-02-27T08:21:24.042Z,6.59
2023-02-27T08:23:51.521Z,6.67
2023-02-27T08:26:18.153Z,6.73
2023-02-27T08:28:45.856Z,6.79
2023-02-27T08:31:12.879Z,6.83
2023-02-27T08:33:40.113Z,6.87
2023-02-27T08:36:08.107Z,6.93
2023-02-27T08:38:34.821Z,7.01
2023-02-27T08:41:03.089Z,7.11
2023-02-27T08:43:29.723Z,7.17
2023-02-27T08:45:56.341Z,7.14
2023-02-27T08:48:24.848Z,7.15
2023-02-27T08:50:51.834Z,7.23
2023-02-27T08:53:18.547Z,7.29
2023-02-27T08:55:49.265Z,7.34
2023-02-27T08:58:17.846Z,7.33
2023-02-27T09:00:44.718Z,7.32
2023-02-27T09:03:11.534Z,7.33
2023-02-27T09:05:38.457Z,7.34
2023-02-27T09:08:05.643Z,7.36
2023-02-27T09:10:33.443Z,7.40
2023-02-27T09:13:00.464Z,7.43
2023-02-27T09:15:28.427Z,7.52
2023-02-27T09:17:58.394Z,7.59
2023-02-27T09:20:25.549Z,7.67
2023-02-27T09:22:52.141Z,7.80
2023-02-27T09:25:19.551Z,7.96
2023-02-27T09:27:46.171Z,7.99
2023-02-27T09:30:13.151Z,7.98
2023-02-27T09:32:40.660Z,7.97
2023-02-27T09:35:09.375Z,8.00
2023-02-27T09:37:36.574Z,8.03
2023-02-27T09:40:05.574Z,8.11
2023-02-27T09:42:45.466Z,8.23
2023-02-27T09:45:26.313Z,8.36
2023-02-27T09:48:29.993Z,8.26
2023-02-27T09:50:57.392Z,8.17
2023-02-27T09:53:27.187Z,8.14
2023-02-27T09:55:55.149Z,8.02
2023-02-27T09:58:34.633Z,8.02
2023-02-27T10:01:07.088Z,8.09
2023-02-27T10:03:39.503Z,8.14
2023-02-27T10:06:21.369Z,8.16
2023-02-27T10:09:14.308Z,8.20
2023-02-27T10:12:22.922Z,8.18
2023-02-27T10:14:57.822Z,8.25
2023-02-27T10:17:29.130Z,8.46
2023-02-27T10:19:56.427Z,8.57
2023-02-27T10:22:35.605Z,8.49
2023-02-27T10:25:29.758Z,8.42
2023-02-27T10:28:05.698Z,8.32
2023-02-27T10:30:34.978Z,8.29
2023-02-27T10:33:17.889Z,8.31
2023-02-27T10:35:45.532Z,8.37
2023-02-27T10:38:28.022Z,8.39
2023-02-27T10:40:55.473Z,8.39
2023-02-27T10:43:22.803Z,8.43
2023-02-27T10:45:49.418Z,8.33
2023-02-27T10:48:16.665Z,8.29
2023-02-27T10:50:45.618Z,8.25
2023-02-27T10:53:23.699Z,8.12
2023-02-27T10:56:05.025Z,7.99
2023-02-27T10:58:35.048Z,8.08
2023-02-27T11:01:05.009Z,8.09
2023-02-27T11:03:42.400Z,8.00
2023-02-27T11:06:27.936Z,7.95
2023-02-27T11:09:18.066Z,8.00
2023-02-27T11:11:44.705Z,7.93
2023-02-27T11:14:25.126Z,7.86
2023-02-27T11:16:54.038Z,7.82
2023-02-27T11:19:35.661Z,7.79
2023-02-27T11:22:11.587Z,7.79
2023-02-27T11:24:38.299Z,7.73
2023-02-27T11:27:26.728Z,7.72
2023-02-27T11:30:03.906Z,7.62
2023-02-27T11:32:46.204Z,7.59
2023-02-27T11:35:23.784Z,7.62
2023-02-27T11:37:52.294Z,7.65
2023-02-27T11:40:20.679Z,7.58
2023-02-27T11:42:51.686Z,7.45
2023-02-27T11:46:04.228Z,7.35
2023-02-27T11:48:21.022Z,7.29
2023-02-27T11:50:52.028Z,7.33
2023-02-27T11:53:27.623Z,7.42
2023-02-27T11:55:58.335Z,7.45
2023-02-27T11:58:28.317Z,7.40
2023-02-27T12:01:01.412Z,7.41
2023-02-27T12:04:00.644Z,7.49
2023-02-27T12:06:31.708Z,7.55
2023-02-27T12:09:01.188Z,7.57
2023-02-27T12:11:32.531Z,7.64
2023-02-27T12:14:23.098Z,7.71
2023-02-27T12:17:21.785Z,7.73
2023-02-27T12:19:52.823Z,7.76
2023-02-27T12:22:32.281Z,7.89
2023-02-27T12:25:34.464Z,8.00
2023-02-27T12:28:09.264Z,8.08
2023-02-27T12:31:05.727Z,8.09
2023-02-27T12:33:48.866Z,8.11
2023-02-27T12:36:15.483Z,8.15
2023-02-27T12:38:43.365Z,8.36
2023-02-27T12:41:19.243Z,8.54
2023-02-27T12:44:14.219Z,8.64
2023-02-27T12:47:04.850Z,8.60
2023-02-27T12:50:11.121Z,8.66
2023-02-27T12:52:43.927Z,8.64
2023-02-27T12:55:29.215Z,8.62
2023-02-27T12:58:15.270Z,8.60
2023-02-27T13:01:02.898Z,8.61
2023-02-27T13:03:41.369Z,8.65
2023-02-27T13:06:23.125Z,8.71
2023-02-27T13:09:01.549Z,8.62
2023-02-27T13:11:53.024Z,8.59
2023-02-27T13:14:44.040Z,8.60
2023-02-27T13:17:18.146Z,8.48
2023-02-27T13:19:51.504Z,8.41
2023-02-27T13:22:40.460Z,8.40
2023-02-27T13:25:14.238Z,8.37
2023-02-27T13:27:55.796Z,8.29
2023-02-27T13:30:34.272Z,8.34
2023-02-27T13:33:25.726Z,8.41
2023-02-27T13:36:04.602Z,8.46
2023-02-27T13:38:34.619Z,8.45
2023-02-27T13:41:22.992Z,8.49
2023-02-27T13:43:53.447Z,8.45
2023-02-27T13:46:28.506Z,8.53
2023-02-27T13:49:28.233Z,8.49
2023-02-27T13:51:58.846Z,8.40
2023-02-27T13:54:27.019Z,8.41
2023-02-27T13:56:59.557Z,8.43
2023-02-27T13:59:31.201Z,8.39
2023-02-27T14:02:12.929Z,8.51
2023-02-27T14:04:51.895Z,8.64
2023-02-27T14:07:21.804Z,8.73
2023-02-27T14:09:51.954Z,8.75
2023-02-27T14:12:46.167Z,8.79
2023-02-27T14:15:22.396Z,8.73
2023-02-27T14:17:54.429Z,8.60
2023-02-27T14:20:24.438Z,8.55
2023-02-27T14:23:15.634Z,8.51
2023-02-27T14:25:53.734Z,8.59
2023-02-27T14:28:44.690Z,8.64
2023-02-27T14:34:35.739Z,8.52
2023-02-27T14:37:07.234Z,8.56
2023-02-27T14:39:36.024Z,8.52
2023-02-27T14:42:15.627Z,8.48
2023-02-27T14:44:47.533Z,8.49
2023-02-27T14:47:29.895Z,8.60
2023-02-27T14:49:56.609Z,8.56
2023-02-27T14:52:29.851Z,8.49
2023-02-27T14:55:20.175Z,8.50
2023-02-27T14:58:08.582Z,8.52
2023-02-27T15:00:39.420Z,8.51
2023-02-27T15:03:16.985Z,8.37
2023-02-27T15:05:43.762Z,8.26
2023-02-27T15:08:23.885Z,8.20
2023-02-27T15:10:53.558Z,8.22
2023-02-27T15:13:26.342Z,8.22
2023-02-27T15:16:20.674Z,8.21
2023-02-27T15:18:58.259Z,8.17
2023-02-27T15:21:27.973Z,8.16
2023-02-27T15:24:02.194Z,8.15
2023-02-27T15:26:30.585Z,8.12
2023-02-27T15:28:59.805Z,8.08
2023-02-27T15:31:30.024Z,8.05
2023-02-27T15:33:59.822Z,8.06
2023-02-27T15:36:29.347Z,8.04
2023-02-27T15:39:15.334Z,8.04
2023-02-27T15:41:48.593Z,8.01
2023-02-27T15:44:19.827Z,7.98
2023-02-27T15:46:46.741Z,7.96
2023-02-27T15:49:17.166Z,7.97
2023-02-27T15:51:44.585Z,7.95
2023-02-27T15:54:11.624Z,7.99
2023-02-27T15:56:39.105Z,8.02
2023-02-27T15:59:05.729Z,8.05
2023-02-27T16:01:34.973Z,8.08
2023-02-27T16:04:06.917Z,8.05
2023-02-27T16:06:39.434Z,8.01
2023-02-27T16:09:38.999Z,7.99
2023-02-27T16:12:22.482Z,8.00
2023-02-27T16:14:52.787Z,7.99
2023-02-27T16:17:33.658Z,7.91
2023-02-27T16:20:02.438Z,7.85
2023-02-27T16:22:31.393Z,7.82
2023-02-27T16:25:11.856Z,7.84
2023-02-27T16:27:39.295Z,7.79
2023-02-27T16:30:10.909Z,7.75
2023-02-27T16:32:41.526Z,7.73
2023-02-27T16:35:16.875Z,7.76
2023-02-27T16:37:45.184Z,7.81
2023-02-27T16:40:15.954Z,7.82
2023-02-27T16:42:43.586Z,7.76
2023-02-27T16:45:25.128Z,7.71
2023-02-27T16:47:54.895Z,7.74
2023-02-27T16:50:22.467Z,7.78
2023-02-27T16:52:49.145Z,7.77
2023-02-27T16:55:15.767Z,7.66
2023-02-27T16:57:42.273Z,7.63
2023-02-27T17:00:12.880Z,7.63
2023-02-27T17:02:39.427Z,7.63
2023-02-27T17:05:06.538Z,7.59
2023-02-27T17:07:33.148Z,7.55
2023-02-27T17:10:00.377Z,7.54
2023-02-27T17:12:26.975Z,7.53
2023-02-27T17:14:53.508Z,7.58
2023-02-27T17:17:20.262Z,7.60
2023-02-27T17:19:51.034Z,7.58
2023-02-27T17:22:17.737Z,7.58
2023-02-27T17:24:44.496Z,7.59
2023-02-27T17:27:11.102Z,7.59
2023-02-27T17:29:38.987Z,7.61
2023-02-27T17:32:06.548Z,7.61
2023-02-27T17:34:33.268Z,7.59
2023-02-27T17:36:59.807Z,7.60
2023-02-27T17:39:26.380Z,7.64
2023-02-27T17:41:54.378Z,7.67
2023-02-27T17:44:21.519Z,7.70
2023-02-27T17:46:48.264Z,7.71
2023-02-27T17:49:14.919Z,7.67
2023-02-27T17:51:41.480Z,7.69
2023-02-27T17:54:08.251Z,7.70
2023-02-27T17:56:36.734Z,7.75
2023-02-27T17:59:03.991Z,7.75
2023-02-27T18:01:30.603Z,7.77
2023-02-27T18:03:57.543Z,7.81
2023-02-27T18:06:24.728Z,7.80
2023-02-27T18:08:52.054Z,7.78
2023-02-27T18:11:20.971Z,7.75
2023-02-27T18:13:48.229Z,7.76
2023-02-27T18:16:15.375Z,7.73
2023-02-27T18:18:42.798Z,7.75
2023-02-27T18:21:19.926Z,7.75
2023-02-27T18:23:49.534Z,7.79
2023-02-27T18:26:30.595Z,7.77
2023-02-27T18:29:00.431Z,7.72
2023-02-27T18:31:39.390Z,7.67
2023-02-27T18:34:07.820Z,7.62
2023-02-27T18:36:35.581Z,7.58
2023-02-27T18:39:04.936Z,7.58
2023-02-27T18:41:32.199Z,7.59
2023-02-27T18:43:58.738Z,7.60
2023-02-27T18:46:25.389Z,7.58
2023-02-27T18:48:52.106Z,7.52
2023-02-27T18:51:19.098Z,7.47
2023-02-27T18:53:48.146Z,7.44
2023-02-27T18:56:16.580Z,7.43
2023-02-27T18:58:43.421Z,7.46
2023-02-27T19:01:20.635Z,7.48
2023-02-27T19:03:47.385Z,7.50
2023-02-27T19:06:14.083Z,7.51
2023-02-27T19:08:42.601Z,7.50
2023-02-27T19:11:09.261Z,7.53
2023-02-27T19:13:35.790Z,7.56
2023-02-27T19:16:06.357Z,7.54
2023-02-27T19:18:33.169Z,7.50
2023-02-27T19:21:04.469Z,7.50
2023-02-27T19:23:31.205Z,7.48
2023-02-27T19:25:59.516Z,7.45
2023-02-27T19:28:26.305Z,7.46
2023-02-27T19:30:54.946Z,7.45
2023-02-27T19:33:21.660Z,7.45
2023-02-27T19:35:48.409Z,7.48
2023-02-27T19:38:14.998Z,7.50
2023-02-27T19:40:41.587Z,7.49
2023-02-27T19:43:08.510Z,7.51
2023-02-27T19:45:35.123Z,7.53
2023-02-27T19:48:01.900Z,7.56
2023-02-27T19:50:30.234Z,7.56
2023-02-27T19:52:56.802Z,7.53
2023-02-27T19:55:23.425Z,7.53
2023-02-27T19:57:50.065Z,7.51
2023-02-27T20:00:17.593Z,7.50
2023-02-27T20:02:44.205Z,7.50
2023-02-27T20:05:12.147Z,7.49
2023-02-27T20:07:39.307Z,7.49
2023-02-27T20:10:07.279Z,7.51
2023-02-27T20:12:34.204Z,7.56
2023-02-27T20:15:08.185Z,7.57
2023-02-27T20:17:35.228Z,7.60
2023-02-27T20:20:02.196Z,7.64
2023-02-27T20:22:28.727Z,7.66
2023-02-27T20:24:56.398Z,7.66
2023-02-27T20:27:23.055Z,7.67
2023-02-27T20:29:57.422Z,7.66
2023-02-27T20:32:24.675Z,7.67
2023-02-27T20:34:51.874Z,7.70
2023-02-27T20:37:19.556Z,7.71
2023-02-27T20:39:46.538Z,7.71
2023-02-27T20:42:14.120Z,7.71
2023-02-27T20:44:41.663Z,7.72
2023-02-27T20:47:09.081Z,7.69
2023-02-27T20:49:36.513Z,7.71
2023-02-27T20:52:03.360Z,7.69
2023-02-27T20:54:30.045Z,7.64
2023-02-27T20:56:56.578Z,7.61
2023-02-27T20:59:25.145Z,7.60
2023-02-27T21:01:52.860Z,7.58
2023-02-27T21:04:42.547Z,7.59
2023-02-27T21:07:18.637Z,7.63
2023-02-27T21:09:45.411Z,7.65
2023-02-27T21:12:12.549Z,7.64
2023-02-27T21:14:39.369Z,7.61
2023-02-27T21:17:06.060Z,7.64
2023-02-27T21:19:32.675Z,7.61
2023-02-27T21:21:59.410Z,7.53
2023-02-27T21:24:26.055Z,7.51
2023-02-27T21:26:52.602Z,7.53
2023-02-27T21:29:20.780Z,7.56
2023-02-27T21:31:49.082Z,7.59
2023-02-27T21:34:22.255Z,7.60
2023-02-27T21:36:49.605Z,7.57
2023-02-27T21:39:28.730Z,7.52
2023-02-27T21:41:55.356Z,7.50
2023-02-27T21:44:25.121Z,7.51
2023-02-27T21:46:53.228Z,7.55
2023-02-27T21:49:22.945Z,7.61
2023-02-27T21:51:50.036Z,7.64
2023-02-27T21:54:18.733Z,7.59
2023-02-27T21:56:46.686Z,7.55
2023-02-27T21:59:14.762Z,7.60
2023-02-27T22:01:41.973Z,7.61
2023-02-27T22:04:08.741Z,7.61
2023-02-27T22:06:35.395Z,7.61
2023-02-27T22:09:04.875Z,7.61
2023-02-27T22:11:32.746Z,7.62
2023-02-27T22:13:59.570Z,7.65
2023-02-27T22:16:26.201Z,7.65
2023-02-27T22:18:53.088Z,7.67
2023-02-27T22:21:22.751Z,7.70
2023-02-27T22:23:50.187Z,7.69
2023-02-27T22:26:24.220Z,7.73
2023-02-27T22:28:51.900Z,7.73
2023-02-27T22:31:33.321Z,7.72
2023-02-27T22:34:03.094Z,7.70
2023-02-27T22:36:31.445Z,7.71
2023-02-27T22:38:58.494Z,7.73
2023-02-27T22:41:28.175Z,7.75
2023-02-27T22:43:56.246Z,7.77
2023-02-27T22:46:29.296Z,7.79
2023-02-27T22:48:57.457Z,7.79
2023-02-27T22:51:28.604Z,7.79
2023-02-27T22:54:00.401Z,7.77
2023-02-27T22:56:27.561Z,7.77
2023-02-27T22:58:54.278Z,7.79
2023-02-27T23:01:25.505Z,7.80
2023-02-27T23:03:53.490Z,7.83
2023-02-27T23:06:23.854Z,7.84
2023-02-27T23:08:53.423Z,7.83
2023-02-27T23:11:20.576Z,7.83
2023-02-27T23:13:48.465Z,7.86
2023-02-27T23:16:15.596Z,7.88
2023-02-27T23:18:47.726Z,7.90
2023-02-27T23:21:14.905Z,7.91
2023-02-27T23:23:41.882Z,7.92
2023-02-27T23:26:08.412Z,7.92
2023-02-27T23:28:35.898Z,7.99
2023-02-27T23:31:03.474Z,7.99
2023-02-27T23:33:30.240Z,8.00
2023-02-27T23:35:59.923Z,8.03
2023-02-27T23:38:27.393Z,8.04
2023-02-27T23:40:54.232Z,7.99
2023-02-27T23:43:39.685Z,7.99
2023-02-27T23:46:08.160Z,7.99
2023-02-27T23:48:35.234Z,7.96
2023-02-27T23:51:03.480Z,7.94
2023-02-27T23:53:30.407Z,7.96
2023-02-27T23:55:56.994Z,7.95
2023-02-27T23:58:24.809Z,7.89
